sensor_id;sensor_type;location;lat;lon;timestamp;pressure;altitude;pressure_sealevel;temperature;humidity
75585;BME280;64162;53.508;10.476;2024-02-26T00:01:47;99955.22;;;8.79;61.10
75585;BME280;64162;53.508;10.476;2024-02-26T00:04:13;99962.94;;;8.87;60.79
75585;BME280;64162;53.508;10.476;2024-02-26T00:06:40;99956.75;;;9.13;60.13
75585;BME280;64162;53.508;10.476;2024-02-26T00:09:08;99949.78;;;9.21;59.13
75585;BME280;64162;53.508;10.476;2024-02-26T00:11:36;99963.88;;;10.34;55.36
75585;BME280;64162;53.508;10.476;2024-02-26T00:14:03;99970.53;;;10.06;55.61
75585;BME280;64162;53.508;10.476;2024-02-26T00:16:31;99964.16;;;10.39;54.66
75585;BME280;64162;53.508;10.476;2024-02-26T00:18:58;99958.94;;;8.77;59.97
75585;BME280;64162;53.508;10.476;2024-02-26T00:21:25;99965.81;;;9.00;59.21
75585;BME280;64162;53.508;10.476;2024-02-26T00:23:53;99970.22;;;8.76;60.28
75585;BME280;64162;53.508;10.476;2024-02-26T00:26:19;99967.38;;;9.96;55.61
75585;BME280;64162;53.508;10.476;2024-02-26T00:28:46;99968.06;;;9.20;57.55
75585;BME280;64162;53.508;10.476;2024-02-26T00:31:12;99970.56;;;8.73;59.68
75585;BME280;64162;53.508;10.476;2024-02-26T00:33:39;99962.91;;;9.81;55.79
75585;BME280;64162;53.508;10.476;2024-02-26T00:36:06;99954.84;;;9.76;55.69
75585;BME280;64162;53.508;10.476;2024-02-26T00:38:32;99955.88;;;9.67;55.70
75585;BME280;64162;53.508;10.476;2024-02-26T00:40:59;99967.38;;;9.65;54.89
75585;BME280;64162;53.508;10.476;2024-02-26T00:43:26;99970.25;;;8.43;59.76
75585;BME280;64162;53.508;10.476;2024-02-26T00:45:52;99972.88;;;9.23;56.56
75585;BME280;64162;53.508;10.476;2024-02-26T00:48:19;99969.84;;;7.90;61.34
75585;BME280;64162;53.508;10.476;2024-02-26T00:50:45;99960.41;;;8.79;58.32
75585;BME280;64162;53.508;10.476;2024-02-26T00:53:12;99976.78;;;8.05;60.11
75585;BME280;64162;53.508;10.476;2024-02-26T00:55:38;99980.31;;;7.88;61.05
75585;BME280;64162;53.508;10.476;2024-02-26T00:58:05;99967.09;;;7.83;60.88
75585;BME280;64162;53.508;10.476;2024-02-26T01:00:32;99980.41;;;8.37;59.55
75585;BME280;64162;53.508;10.476;2024-02-26T01:02:58;99981.38;;;8.36;58.42
75585;BME280;64162;53.508;10.476;2024-02-26T01:05:26;99980.31;;;7.88;60.82
75585;BME280;64162;53.508;10.476;2024-02-26T01:07:53;99984.44;;;8.55;58.58
75585;BME280;64162;53.508;10.476;2024-02-26T01:10:19;99983.00;;;8.69;57.00
75585;BME280;64162;53.508;10.476;2024-02-26T01:12:46;99973.22;;;9.12;56.25
75585;BME280;64162;53.508;10.476;2024-02-26T01:15:12;99969.25;;;9.40;55.13
75585;BME280;64162;53.508;10.476;2024-02-26T01:17:39;99962.63;;;9.45;54.89
75585;BME280;64162;53.508;10.476;2024-02-26T01:20:06;99971.59;;;9.58;54.61
75585;BME280;64162;53.508;10.476;2024-02-26T01:22:32;99974.75;;;8.74;57.45
75585;BME280;64162;53.508;10.476;2024-02-26T01:24:59;99987.75;;;7.99;59.08
75585;BME280;64162;53.508;10.476;2024-02-26T01:27:26;99971.34;;;7.50;60.63
75585;BME280;64162;53.508;10.476;2024-02-26T01:29:53;99970.09;;;8.69;57.23
75585;BME280;64162;53.508;10.476;2024-02-26T01:32:20;99977.50;;;8.64;57.22
75585;BME280;64162;53.508;10.476;2024-02-26T01:34:46;99987.88;;;7.40;61.53
75585;BME280;64162;53.508;10.476;2024-02-26T01:37:13;99980.25;;;7.30;61.88
75585;BME280;64162;53.508;10.476;2024-02-26T01:39:40;99983.50;;;7.32;61.69
75585;BME280;64162;53.508;10.476;2024-02-26T01:42:08;99967.50;;;8.29;58.51
75585;BME280;64162;53.508;10.476;2024-02-26T01:44:34;99984.44;;;7.31;60.87
75585;BME280;64162;53.508;10.476;2024-02-26T01:47:01;99978.31;;;8.65;57.14
75585;BME280;64162;53.508;10.476;2024-02-26T01:49:29;99982.03;;;8.54;56.23
75585;BME280;64162;53.508;10.476;2024-02-26T01:51:57;99983.16;;;7.69;60.05
75585;BME280;64162;53.508;10.476;2024-02-26T01:54:24;99975.59;;;8.50;57.06
75585;BME280;64162;53.508;10.476;2024-02-26T01:56:51;99979.47;;;7.71;59.46
75585;BME280;64162;53.508;10.476;2024-02-26T01:59:18;99983.28;;;7.25;61.51
75585;BME280;64162;53.508;10.476;2024-02-26T02:01:47;99967.91;;;7.33;60.51
75585;BME280;64162;53.508;10.476;2024-02-26T02:04:15;99975.25;;;7.62;60.33
75585;BME280;64162;53.508;10.476;2024-02-26T02:06:43;99977.56;;;7.06;61.66
75585;BME280;64162;53.508;10.476;2024-02-26T02:09:11;99981.31;;;8.03;58.88
75585;BME280;64162;53.508;10.476;2024-02-26T02:11:38;99985.41;;;7.64;58.83
75585;BME280;64162;53.508;10.476;2024-02-26T02:14:05;99981.03;;;7.56;59.99
75585;BME280;64162;53.508;10.476;2024-02-26T02:16:32;99975.88;;;7.56;59.46
75585;BME280;64162;53.508;10.476;2024-02-26T02:18:59;99983.75;;;7.55;60.11
75585;BME280;64162;53.508;10.476;2024-02-26T02:21:25;99976.09;;;7.29;60.08
75585;BME280;64162;53.508;10.476;2024-02-26T02:23:52;99983.19;;;7.85;59.55
75585;BME280;64162;53.508;10.476;2024-02-26T02:26:19;99987.59;;;6.91;61.47
75585;BME280;64162;53.508;10.476;2024-02-26T02:28:46;99971.59;;;7.81;59.83
75585;BME280;64162;53.508;10.476;2024-02-26T02:31:15;99986.84;;;8.57;56.44
75585;BME280;64162;53.508;10.476;2024-02-26T02:33:42;99977.44;;;8.15;56.65
75585;BME280;64162;53.508;10.476;2024-02-26T02:36:08;99977.19;;;8.59;55.33
75585;BME280;64162;53.508;10.476;2024-02-26T02:38:37;99978.00;;;8.51;55.81
75585;BME280;64162;53.508;10.476;2024-02-26T02:41:04;99988.78;;;8.31;56.20
75585;BME280;64162;53.508;10.476;2024-02-26T02:43:31;99979.59;;;8.36;55.68
75585;BME280;64162;53.508;10.476;2024-02-26T02:45:57;99977.84;;;8.53;55.28
75585;BME280;64162;53.508;10.476;2024-02-26T02:48:24;99990.38;;;8.24;55.67
75585;BME280;64162;53.508;10.476;2024-02-26T02:50:51;99985.47;;;7.96;55.96
75585;BME280;64162;53.508;10.476;2024-02-26T02:53:17;99977.88;;;6.77;60.41
75585;BME280;64162;53.508;10.476;2024-02-26T02:55:44;99985.09;;;6.73;60.53
75585;BME280;64162;53.508;10.476;2024-02-26T02:58:11;99988.97;;;7.03;59.19
75585;BME280;64162;53.508;10.476;2024-02-26T03:00:38;99990.28;;;6.81;59.72
75585;BME280;64162;53.508;10.476;2024-02-26T03:03:04;99989.47;;;7.07;59.76
75585;BME280;64162;53.508;10.476;2024-02-26T03:05:31;99990.44;;;7.82;57.18
75585;BME280;64162;53.508;10.476;2024-02-26T03:07:58;99998.22;;;6.88;58.99
75585;BME280;64162;53.508;10.476;2024-02-26T03:10:24;99983.28;;;7.17;59.03
75585;BME280;64162;53.508;10.476;2024-02-26T03:12:51;99989.78;;;7.04;59.58
75585;BME280;64162;53.508;10.476;2024-02-26T03:15:18;99989.44;;;6.99;60.37
75585;BME280;64162;53.508;10.476;2024-02-26T03:17:44;99991.25;;;7.82;57.41
75585;BME280;64162;53.508;10.476;2024-02-26T03:20:11;99990.72;;;7.70;57.60
75585;BME280;64162;53.508;10.476;2024-02-26T03:22:38;100001.44;;;6.90;60.42
75585;BME280;64162;53.508;10.476;2024-02-26T03:25:05;99996.41;;;7.74;57.51
75585;BME280;64162;53.508;10.476;2024-02-26T03:27:32;99993.22;;;7.12;59.75
75585;BME280;64162;53.508;10.476;2024-02-26T03:29:59;100007.13;;;8.28;55.73
75585;BME280;64162;53.508;10.476;2024-02-26T03:32:25;100011.81;;;8.24;55.07
75585;BME280;64162;53.508;10.476;2024-02-26T03:34:52;100024.84;;;6.79;60.05
75585;BME280;64162;53.508;10.476;2024-02-26T03:37:21;100009.00;;;7.51;57.48
75585;BME280;64162;53.508;10.476;2024-02-26T03:39:47;100016.97;;;8.24;55.53
75585;BME280;64162;53.508;10.476;2024-02-26T03:42:14;100020.53;;;8.31;54.79
75585;BME280;64162;53.508;10.476;2024-02-26T03:44:42;100009.06;;;8.26;54.74
75585;BME280;64162;53.508;10.476;2024-02-26T03:47:09;100014.91;;;8.36;54.57
75585;BME280;64162;53.508;10.476;2024-02-26T03:49:36;100020.09;;;7.44;58.06
75585;BME280;64162;53.508;10.476;2024-02-26T03:52:02;100008.69;;;7.96;55.46
75585;BME280;64162;53.508;10.476;2024-02-26T03:54:29;100010.63;;;8.02;55.79
75585;BME280;64162;53.508;10.476;2024-02-26T03:56:56;100023.75;;;7.75;56.27
75585;BME280;64162;53.508;10.476;2024-02-26T03:59:22;100018.91;;;6.78;58.80
75585;BME280;64162;53.508;10.476;2024-02-26T04:01:51;100027.78;;;6.66;60.18
75585;BME280;64162;53.508;10.476;2024-02-26T04:04:17;100038.84;;;6.23;61.90
75585;BME280;64162;53.508;10.476;2024-02-26T04:06:47;100050.00;;;7.37;57.92
75585;BME280;64162;53.508;10.476;2024-02-26T04:09:14;100050.66;;;7.39;57.36
75585;BME280;64162;53.508;10.476;2024-02-26T04:11:41;100045.69;;;7.19;57.76
75585;BME280;64162;53.508;10.476;2024-02-26T04:14:09;100064.91;;;6.28;60.51
75585;BME280;64162;53.508;10.476;2024-02-26T04:16:38;100069.75;;;6.31;60.78
75585;BME280;64162;53.508;10.476;2024-02-26T04:19:05;100079.75;;;6.70;60.12
75585;BME280;64162;53.508;10.476;2024-02-26T04:21:34;100078.16;;;7.12;57.46
75585;BME280;64162;53.508;10.476;2024-02-26T04:24:01;100080.47;;;6.44;59.91
75585;BME280;64162;53.508;10.476;2024-02-26T04:26:29;100089.88;;;7.32;57.15
75585;BME280;64162;53.508;10.476;2024-02-26T04:28:56;100062.59;;;7.73;56.29
75585;BME280;64162;53.508;10.476;2024-02-26T04:31:22;100090.97;;;7.82;55.69
75585;BME280;64162;53.508;10.476;2024-02-26T04:33:49;100083.00;;;6.72;59.66
75585;BME280;64162;53.508;10.476;2024-02-26T04:36:16;100089.75;;;6.37;60.48
75585;BME280;64162;53.508;10.476;2024-02-26T04:38:43;100105.66;;;5.96;62.59
75585;BME280;64162;53.508;10.476;2024-02-26T04:41:10;100112.63;;;7.19;58.80
75585;BME280;64162;53.508;10.476;2024-02-26T04:43:37;100111.09;;;7.86;55.76
75585;BME280;64162;53.508;10.476;2024-02-26T04:46:08;100109.13;;;7.80;55.66
75585;BME280;64162;53.508;10.476;2024-02-26T04:48:35;100114.22;;;6.59;59.41
75585;BME280;64162;53.508;10.476;2024-02-26T04:51:02;100119.75;;;7.25;57.18
75585;BME280;64162;53.508;10.476;2024-02-26T04:53:29;100115.28;;;6.84;58.42
75585;BME280;64162;53.508;10.476;2024-02-26T04:55:56;100112.25;;;6.71;59.98
75585;BME280;64162;53.508;10.476;2024-02-26T04:58:22;100114.84;;;7.32;58.55
75585;BME280;64162;53.508;10.476;2024-02-26T05:00:49;100120.19;;;7.39;57.00
75585;BME280;64162;53.508;10.476;2024-02-26T05:03:16;100111.47;;;6.25;60.73
75585;BME280;64162;53.508;10.476;2024-02-26T05:05:43;100122.41;;;6.27;62.12
75585;BME280;64162;53.508;10.476;2024-02-26T05:08:10;100125.69;;;7.44;58.11
75585;BME280;64162;53.508;10.476;2024-02-26T05:10:37;100128.97;;;6.39;60.91
75585;BME280;64162;53.508;10.476;2024-02-26T05:13:08;100130.75;;;6.57;60.86
75585;BME280;64162;53.508;10.476;2024-02-26T05:15:36;100135.72;;;6.68;60.97
75585;BME280;64162;53.508;10.476;2024-02-26T05:18:03;100136.44;;;7.65;56.52
75585;BME280;64162;53.508;10.476;2024-02-26T05:20:30;100130.91;;;7.86;55.41
75585;BME280;64162;53.508;10.476;2024-02-26T05:22:57;100121.53;;;7.25;58.39
75585;BME280;64162;53.508;10.476;2024-02-26T05:25:25;100129.44;;;7.23;58.30
75585;BME280;64162;53.508;10.476;2024-02-26T05:27:52;100122.47;;;7.42;57.67
75585;BME280;64162;53.508;10.476;2024-02-26T05:30:18;100137.81;;;6.55;59.87
75585;BME280;64162;53.508;10.476;2024-02-26T05:32:45;100143.84;;;6.18;61.33
75585;BME280;64162;53.508;10.476;2024-02-26T05:35:12;100134.53;;;6.98;59.10
75585;BME280;64162;53.508;10.476;2024-02-26T05:37:38;100150.28;;;6.50;60.48
75585;BME280;64162;53.508;10.476;2024-02-26T05:40:05;100146.13;;;6.21;61.70
75585;BME280;64162;53.508;10.476;2024-02-26T05:42:32;100148.22;;;6.35;61.34
75585;BME280;64162;53.508;10.476;2024-02-26T05:44:59;100152.50;;;6.17;61.87
75585;BME280;64162;53.508;10.476;2024-02-26T05:47:35;100140.00;;;5.95;62.65
75585;BME280;64162;53.508;10.476;2024-02-26T05:50:02;100148.19;;;6.18;61.88
75585;BME280;64162;53.508;10.476;2024-02-26T05:52:28;100164.09;;;5.94;62.28
75585;BME280;64162;53.508;10.476;2024-02-26T05:54:59;100158.94;;;7.11;59.26
75585;BME280;64162;53.508;10.476;2024-02-26T05:57:25;100154.06;;;7.26;57.13
75585;BME280;64162;53.508;10.476;2024-02-26T05:59:52;100166.69;;;6.21;61.09
75585;BME280;64162;53.508;10.476;2024-02-26T06:02:18;100167.25;;;6.15;61.96
75585;BME280;64162;53.508;10.476;2024-02-26T06:04:45;100165.38;;;6.62;60.20
75585;BME280;64162;53.508;10.476;2024-02-26T06:07:12;100173.28;;;6.33;61.58
75585;BME280;64162;53.508;10.476;2024-02-26T06:09:39;100172.22;;;7.68;56.46
75585;BME280;64162;53.508;10.476;2024-02-26T06:12:06;100177.72;;;7.29;58.18
75585;BME280;64162;53.508;10.476;2024-02-26T06:14:33;100179.72;;;6.65;60.02
75585;BME280;64162;53.508;10.476;2024-02-26T06:16:59;100177.38;;;7.68;56.78
75585;BME280;64162;53.508;10.476;2024-02-26T06:19:26;100173.38;;;7.99;55.49
75585;BME280;64162;53.508;10.476;2024-02-26T06:21:52;100184.28;;;7.67;56.78
75585;BME280;64162;53.508;10.476;2024-02-26T06:24:19;100172.34;;;7.84;56.70
75585;BME280;64162;53.508;10.476;2024-02-26T06:26:47;100188.50;;;7.94;56.46
75585;BME280;64162;53.508;10.476;2024-02-26T06:29:14;100180.28;;;7.47;58.90
75585;BME280;64162;53.508;10.476;2024-02-26T06:31:41;100175.44;;;7.70;57.17
75585;BME280;64162;53.508;10.476;2024-02-26T06:34:07;100190.56;;;7.91;56.51
75585;BME280;64162;53.508;10.476;2024-02-26T06:36:34;100179.84;;;7.52;57.04
75585;BME280;64162;53.508;10.476;2024-02-26T06:39:01;100176.78;;;7.74;57.82
75585;BME280;64162;53.508;10.476;2024-02-26T06:41:28;100187.47;;;7.87;56.59
75585;BME280;64162;53.508;10.476;2024-02-26T06:43:56;100186.69;;;7.95;56.84
75585;BME280;64162;53.508;10.476;2024-02-26T06:46:23;100180.66;;;7.78;57.89
75585;BME280;64162;53.508;10.476;2024-02-26T06:48:50;100193.78;;;8.27;56.17
75585;BME280;64162;53.508;10.476;2024-02-26T06:51:19;100188.63;;;8.18;56.13
75585;BME280;64162;53.508;10.476;2024-02-26T06:53:45;100185.91;;;7.68;58.04
75585;BME280;64162;53.508;10.476;2024-02-26T06:56:12;100203.75;;;7.62;58.71
75585;BME280;64162;53.508;10.476;2024-02-26T06:58:38;100208.72;;;7.38;59.44
75585;BME280;64162;53.508;10.476;2024-02-26T07:01:05;100198.63;;;6.91;60.81
75585;BME280;64162;53.508;10.476;2024-02-26T07:03:32;100214.88;;;7.88;58.63
75585;BME280;64162;53.508;10.476;2024-02-26T07:05:59;100215.50;;;7.90;57.77
75585;BME280;64162;53.508;10.476;2024-02-26T07:08:26;100215.44;;;7.74;59.05
75585;BME280;64162;53.508;10.476;2024-02-26T07:10:52;100210.47;;;7.81;57.25
75585;BME280;64162;53.508;10.476;2024-02-26T07:13:19;100222.34;;;7.12;59.44
75585;BME280;64162;53.508;10.476;2024-02-26T07:15:45;100212.56;;;7.33;59.60
75585;BME280;64162;53.508;10.476;2024-02-26T07:18:12;100226.25;;;6.71;59.36
75585;BME280;64162;53.508;10.476;2024-02-26T07:20:39;100234.34;;;7.04;60.41
75585;BME280;64162;53.508;10.476;2024-02-26T07:23:05;100224.44;;;6.99;60.05
75585;BME280;64162;53.508;10.476;2024-02-26T07:25:33;100235.03;;;6.96;61.59
75585;BME280;64162;53.508;10.476;2024-02-26T07:27:59;100235.56;;;7.17;60.38
75585;BME280;64162;53.508;10.476;2024-02-26T07:30:26;100238.50;;;7.40;59.32
75585;BME280;64162;53.508;10.476;2024-02-26T07:32:52;100232.63;;;7.30;59.85
75585;BME280;64162;53.508;10.476;2024-02-26T07:35:19;100247.69;;;7.60;60.20
75585;BME280;64162;53.508;10.476;2024-02-26T07:37:48;100249.50;;;8.11;58.58
75585;BME280;64162;53.508;10.476;2024-02-26T07:40:15;100247.47;;;7.97;58.17
75585;BME280;64162;53.508;10.476;2024-02-26T07:42:42;100238.78;;;7.98;59.70
75585;BME280;64162;53.508;10.476;2024-02-26T07:45:09;100255.34;;;6.99;62.42
75585;BME280;64162;53.508;10.476;2024-02-26T07:47:36;100249.13;;;7.81;60.56
75585;BME280;64162;53.508;10.476;2024-02-26T07:50:04;100265.47;;;7.89;60.80
75585;BME280;64162;53.508;10.476;2024-02-26T07:52:31;100272.91;;;7.92;61.31
75585;BME280;64162;53.508;10.476;2024-02-26T07:54:57;100265.25;;;8.60;57.56
75585;BME280;64162;53.508;10.476;2024-02-26T07:57:24;100261.09;;;8.75;57.90
75585;BME280;64162;53.508;10.476;2024-02-26T07:59:51;100272.41;;;8.14;57.64
75585;BME280;64162;53.508;10.476;2024-02-26T08:02:17;100266.53;;;7.61;59.76
75585;BME280;64162;53.508;10.476;2024-02-26T08:04:44;100273.31;;;7.62;61.74
75585;BME280;64162;53.508;10.476;2024-02-26T08:07:10;100284.16;;;7.91;60.20
75585;BME280;64162;53.508;10.476;2024-02-26T08:09:37;100280.72;;;7.65;61.47
75585;BME280;64162;53.508;10.476;2024-02-26T08:12:04;100293.41;;;8.02;58.87
75585;BME280;64162;53.508;10.476;2024-02-26T08:14:30;100287.47;;;8.27;58.64
75585;BME280;64162;53.508;10.476;2024-02-26T08:16:59;100289.34;;;8.17;60.34
75585;BME280;64162;53.508;10.476;2024-02-26T08:19:26;100281.53;;;8.60;61.96
75585;BME280;64162;53.508;10.476;2024-02-26T08:21:52;100286.56;;;8.36;59.87
75585;BME280;64162;53.508;10.476;2024-02-26T08:24:19;100292.75;;;7.74;60.83
75585;BME280;64162;53.508;10.476;2024-02-26T08:26:45;100284.06;;;8.27;63.51
75585;BME280;64162;53.508;10.476;2024-02-26T08:29:12;100291.16;;;7.99;61.78
75585;BME280;64162;53.508;10.476;2024-02-26T08:31:39;100282.13;;;8.88;59.88
75585;BME280;64162;53.508;10.476;2024-02-26T08:34:05;100295.97;;;8.79;60.87
75585;BME280;64162;53.508;10.476;2024-02-26T08:36:33;100285.44;;;7.87;62.90
75585;BME280;64162;53.508;10.476;2024-02-26T08:39:00;100297.16;;;8.07;62.62
75585;BME280;64162;53.508;10.476;2024-02-26T08:41:26;100302.72;;;8.38;61.66
75585;BME280;64162;53.508;10.476;2024-02-26T08:43:53;100308.47;;;9.00;60.35
75585;BME280;64162;53.508;10.476;2024-02-26T08:46:21;100317.47;;;8.10;62.27
75585;BME280;64162;53.508;10.476;2024-02-26T08:48:47;100314.19;;;9.36;59.68
75585;BME280;64162;53.508;10.476;2024-02-26T08:51:14;100311.16;;;9.40;58.93
75585;BME280;64162;53.508;10.476;2024-02-26T08:53:40;100309.78;;;9.12;60.13
75585;BME280;64162;53.508;10.476;2024-02-26T08:56:07;100307.81;;;8.98;60.40
75585;BME280;64162;53.508;10.476;2024-02-26T08:58:33;100319.16;;;8.71;61.49
75585;BME280;64162;53.508;10.476;2024-02-26T09:01:00;100317.59;;;8.78;61.72
75585;BME280;64162;53.508;10.476;2024-02-26T09:03:27;100317.56;;;8.18;61.87
75585;BME280;64162;53.508;10.476;2024-02-26T09:05:53;100325.97;;;8.46;61.73
75585;BME280;64162;53.508;10.476;2024-02-26T09:08:20;100317.25;;;8.73;60.57
75585;BME280;64162;53.508;10.476;2024-02-26T09:10:50;100320.91;;;8.63;63.27
75585;BME280;64162;53.508;10.476;2024-02-26T09:13:16;100322.31;;;9.49;60.83
75585;BME280;64162;53.508;10.476;2024-02-26T09:15:43;100325.03;;;9.56;59.69
75585;BME280;64162;53.508;10.476;2024-02-26T09:18:09;100319.03;;;9.23;59.46
75585;BME280;64162;53.508;10.476;2024-02-26T09:20:36;100326.69;;;9.73;60.22
75585;BME280;64162;53.508;10.476;2024-02-26T09:23:03;100325.19;;;9.46;59.34
75585;BME280;64162;53.508;10.476;2024-02-26T09:25:30;100333.75;;;9.38;60.96
75585;BME280;64162;53.508;10.476;2024-02-26T09:27:56;100339.59;;;9.57;61.37
75585;BME280;64162;53.508;10.476;2024-02-26T09:30:23;100324.81;;;9.17;62.03
75585;BME280;64162;53.508;10.476;2024-02-26T09:32:49;100325.75;;;9.08;60.97
75585;BME280;64162;53.508;10.476;2024-02-26T09:35:16;100335.22;;;8.91;62.79
75585;BME280;64162;53.508;10.476;2024-02-26T09:37:43;100337.75;;;9.25;61.98
75585;BME280;64162;53.508;10.476;2024-02-26T09:40:11;100342.97;;;8.91;61.87
75585;BME280;64162;53.508;10.476;2024-02-26T09:42:43;100338.94;;;9.71;61.09
75585;BME280;64162;53.508;10.476;2024-02-26T09:45:18;100353.06;;;8.76;63.23
75585;BME280;64162;53.508;10.476;2024-02-26T09:47:45;100341.94;;;9.18;61.76
75585;BME280;64162;53.508;10.476;2024-02-26T09:50:14;100350.56;;;9.51;62.12
75585;BME280;64162;53.508;10.476;2024-02-26T09:52:44;100351.78;;;9.14;62.64
75585;BME280;64162;53.508;10.476;2024-02-26T09:55:11;100356.16;;;8.80;63.35
75585;BME280;64162;53.508;10.476;2024-02-26T09:57:37;100340.75;;;10.11;60.54
75585;BME280;64162;53.508;10.476;2024-02-26T10:00:09;100356.13;;;9.22;63.11
75585;BME280;64162;53.508;10.476;2024-02-26T10:02:38;100349.81;;;9.90;61.77
75585;BME280;64162;53.508;10.476;2024-02-26T10:05:07;100360.63;;;9.03;63.15
75585;BME280;64162;53.508;10.476;2024-02-26T10:07:37;100364.09;;;9.36;63.12
75585;BME280;64162;53.508;10.476;2024-02-26T10:10:03;100364.00;;;9.62;62.42
75585;BME280;64162;53.508;10.476;2024-02-26T10:12:31;100369.19;;;9.70;61.14
75585;BME280;64162;53.508;10.476;2024-02-26T10:14:58;100365.31;;;9.99;60.49
75585;BME280;64162;53.508;10.476;2024-02-26T10:17:26;100368.81;;;9.57;62.79
75585;BME280;64162;53.508;10.476;2024-02-26T10:19:53;100373.03;;;9.58;62.33
75585;BME280;64162;53.508;10.476;2024-02-26T10:22:22;100372.44;;;10.45;60.52
75585;BME280;64162;53.508;10.476;2024-02-26T10:24:49;100361.81;;;10.16;61.30
75585;BME280;64162;53.508;10.476;2024-02-26T10:27:16;100373.41;;;10.04;61.99
75585;BME280;64162;53.508;10.476;2024-02-26T10:29:42;100365.97;;;10.17;61.12
75585;BME280;64162;53.508;10.476;2024-02-26T10:32:09;100364.38;;;10.16;61.03
75585;BME280;64162;53.508;10.476;2024-02-26T10:34:37;100375.47;;;9.76;61.52
75585;BME280;64162;53.508;10.476;2024-02-26T10:37:05;100377.44;;;10.55;60.32
75585;BME280;64162;53.508;10.476;2024-02-26T10:39:31;100385.03;;;9.83;62.07
75585;BME280;64162;53.508;10.476;2024-02-26T10:41:59;100389.03;;;10.67;60.29
75585;BME280;64162;53.508;10.476;2024-02-26T10:44:27;100396.88;;;10.35;61.46
75585;BME280;64162;53.508;10.476;2024-02-26T10:46:54;100392.44;;;10.67;60.02
75585;BME280;64162;53.508;10.476;2024-02-26T10:49:21;100402.19;;;10.01;62.29
75585;BME280;64162;53.508;10.476;2024-02-26T10:51:56;100398.81;;;10.41;60.81
75585;BME280;64162;53.508;10.476;2024-02-26T10:54:26;100405.03;;;10.79;60.03
75585;BME280;64162;53.508;10.476;2024-02-26T10:56:56;100389.75;;;10.28;61.15
75585;BME280;64162;53.508;10.476;2024-02-26T10:59:24;100403.81;;;10.34;61.66
75585;BME280;64162;53.508;10.476;2024-02-26T11:01:51;100396.19;;;10.49;60.65
75585;BME280;64162;53.508;10.476;2024-02-26T11:04:18;100400.84;;;11.25;60.06
75585;BME280;64162;53.508;10.476;2024-02-26T11:06:47;100400.31;;;11.29;59.21
75585;BME280;64162;53.508;10.476;2024-02-26T11:09:17;100395.06;;;10.51;61.31
75585;BME280;64162;53.508;10.476;2024-02-26T11:11:46;100400.28;;;10.35;61.64
75585;BME280;64162;53.508;10.476;2024-02-26T11:14:14;100393.19;;;11.31;59.18
75585;BME280;64162;53.508;10.476;2024-02-26T11:16:41;100412.25;;;11.38;59.14
75585;BME280;64162;53.508;10.476;2024-02-26T11:19:09;100391.06;;;11.66;57.92
75585;BME280;64162;53.508;10.476;2024-02-26T11:21:37;100412.78;;;10.95;59.77
75585;BME280;64162;53.508;10.476;2024-02-26T11:24:11;100407.34;;;10.57;61.71
75585;BME280;64162;53.508;10.476;2024-02-26T11:26:55;100409.63;;;10.60;62.24
75585;BME280;64162;53.508;10.476;2024-02-26T11:29:29;100403.25;;;11.57;58.73
75585;BME280;64162;53.508;10.476;2024-02-26T11:31:59;100394.72;;;11.48;58.85
75585;BME280;64162;53.508;10.476;2024-02-26T11:34:27;100400.94;;;11.62;58.50
75585;BME280;64162;53.508;10.476;2024-02-26T11:36:54;100402.16;;;10.57;62.71
75585;BME280;64162;53.508;10.476;2024-02-26T11:39:23;100402.78;;;11.84;58.96
75585;BME280;64162;53.508;10.476;2024-02-26T11:41:50;100397.47;;;11.47;59.99
75585;BME280;64162;53.508;10.476;2024-02-26T11:44:28;100408.78;;;11.23;60.04
75585;BME280;64162;53.508;10.476;2024-02-26T11:46:56;100408.47;;;10.63;63.32
75585;BME280;64162;53.508;10.476;2024-02-26T11:51:54;100416.28;;;11.80;61.36
75585;BME280;64162;53.508;10.476;2024-02-26T11:54:48;100422.19;;;11.27;60.74
75585;BME280;64162;53.508;10.476;2024-02-26T11:57:25;100413.03;;;12.61;58.35
75585;BME280;64162;53.508;10.476;2024-02-26T11:59:54;100411.50;;;11.60;60.13
75585;BME280;64162;53.508;10.476;2024-02-26T12:05:30;100418.81;;;11.88;59.51
75585;BME280;64162;53.508;10.476;2024-02-26T12:08:03;100414.84;;;11.38;61.22
75585;BME280;64162;53.508;10.476;2024-02-26T12:10:41;100419.63;;;10.80;61.72
75585;BME280;64162;53.508;10.476;2024-02-26T12:13:13;100427.59;;;11.48;60.26
75585;BME280;64162;53.508;10.476;2024-02-26T12:15:55;100424.88;;;11.02;62.77
75585;BME280;64162;53.508;10.476;2024-02-26T12:18:22;100428.31;;;11.34;61.77
75585;BME280;64162;53.508;10.476;2024-02-26T12:21:02;100438.16;;;11.46;60.57
75585;BME280;64162;53.508;10.476;2024-02-26T12:23:30;100427.69;;;11.62;60.46
75585;BME280;64162;53.508;10.476;2024-02-26T12:26:00;100440.97;;;11.76;59.27
75585;BME280;64162;53.508;10.476;2024-02-26T12:28:31;100448.94;;;11.58;61.24
75585;BME280;64162;53.508;10.476;2024-02-26T12:30:58;100443.03;;;11.72;59.85
75585;BME280;64162;53.508;10.476;2024-02-26T12:33:26;100463.84;;;11.17;60.73
75585;BME280;64162;53.508;10.476;2024-02-26T12:35:53;100456.00;;;12.03;59.59
75585;BME280;64162;53.508;10.476;2024-02-26T12:38:20;100468.56;;;11.13;61.58
75585;BME280;64162;53.508;10.476;2024-02-26T12:40:47;100463.53;;;11.20;61.39
75585;BME280;64162;53.508;10.476;2024-02-26T12:43:15;100457.28;;;10.98;61.44
75585;BME280;64162;53.508;10.476;2024-02-26T12:45:43;100467.00;;;11.43;62.12
75585;BME280;64162;53.508;10.476;2024-02-26T12:48:12;100473.72;;;11.99;60.27
75585;BME280;64162;53.508;10.476;2024-02-26T12:50:39;100460.97;;;11.90;60.90
75585;BME280;64162;53.508;10.476;2024-02-26T12:53:06;100467.38;;;11.71;61.48
75585;BME280;64162;53.508;10.476;2024-02-26T12:55:33;100465.69;;;11.47;62.04
75585;BME280;64162;53.508;10.476;2024-02-26T12:58:01;100480.13;;;11.50;61.33